createdAt,value
2022-10-31T00:00:14.962Z,98468.66
2022-10-31T00:05:18.280Z,98466.88
2022-10-31T00:10:20.789Z,98463.59
2022-10-31T00:15:23.410Z,98452.00
2022-10-31T00:20:26.106Z,98453.09
2022-10-31T00:25:30.226Z,98467.66
2022-10-31T00:30:33.229Z,98462.94
2022-10-31T00:35:35.610Z,98461.78
2022-10-31T00:40:38.524Z,98458.28
2022-10-31T00:45:41.926Z,98468.00
2022-10-31T00:50:44.461Z,98464.41
2022-10-31T00:55:47.175Z,98458.59
2022-10-31T01:00:56.408Z,98465.09
2022-10-31T01:06:06.954Z,98464.41
2022-10-31T01:11:12.406Z,98464.97
2022-10-31T01:16:19.623Z,98459.53
2022-10-31T01:21:24.776Z,98459.09
2022-10-31T01:26:31.777Z,98454.63
2022-10-31T01:31:37.885Z,98447.34
2022-10-31T01:36:40.574Z,98449.09
2022-10-31T01:41:53.792Z,98458.94
2022-10-31T01:47:27.818Z,98452.69
2022-10-31T01:52:39.740Z,98438.13
2022-10-31T01:57:46.761Z,98446.22
2022-10-31T02:02:52.806Z,98442.34
2022-10-31T02:08:15.046Z,98443.22
2022-10-31T02:13:18.400Z,98439.84
2022-10-31T02:18:26.209Z,98438.09
2022-10-31T02:23:50.497Z,98443.00
2022-10-31T02:29:30.663Z,98439.03
2022-10-31T02:34:43.961Z,98438.09
2022-10-31T02:40:04.737Z,98440.38
2022-10-31T02:45:32.362Z,98441.66
2022-10-31T02:50:40.382Z,98437.81
2022-10-31T02:55:59.275Z,98437.03
2022-10-31T03:01:23.333Z,98442.66
2022-10-31T03:06:29.797Z,98428.31
2022-10-31T03:11:49.891Z,98433.81
2022-10-31T03:16:55.864Z,98429.16
2022-10-31T03:22:10.183Z,98433.50
2022-10-31T03:27:17.089Z,98431.38
2022-10-31T03:32:33.332Z,98432.16
2022-10-31T03:37:39.823Z,98443.72
2022-10-31T03:42:55.761Z,98427.50
2022-10-31T03:48:00.670Z,98438.53
2022-10-31T03:53:07.364Z,98433.84
2022-10-31T03:58:22.181Z,98428.69
2022-10-31T04:03:28.701Z,98434.88
2022-10-31T04:08:40.389Z,98436.19
2022-10-31T04:13:47.035Z,98427.44
2022-10-31T04:18:57.320Z,98423.94
2022-10-31T04:24:00.084Z,98427.84
2022-10-31T04:29:05.830Z,98422.13
2022-10-31T04:34:08.525Z,98414.69
2022-10-31T04:39:10.915Z,98411.44
2022-10-31T04:44:29.015Z,98418.50
2022-10-31T04:49:36.043Z,98408.25
2022-10-31T04:54:38.672Z,98403.97
2022-10-31T05:00:20.920Z,98395.63
2022-10-31T05:05:28.727Z,98391.00
2022-10-31T05:10:31.872Z,98389.03
2022-10-31T05:15:35.993Z,98390.06
2022-10-31T05:20:44.127Z,98390.31
2022-10-31T05:26:25.860Z,98391.13
2022-10-31T05:31:30.539Z,98377.81
2022-10-31T05:36:33.387Z,98385.47
2022-10-31T05:41:39.357Z,98382.28
2022-10-31T05:46:55.985Z,98373.94
2022-10-31T05:52:24.507Z,98376.56
2022-10-31T05:57:34.963Z,98376.56
2022-10-31T06:02:37.736Z,98374.59
2022-10-31T06:08:03.614Z,98372.81
2022-10-31T06:13:07.613Z,98369.25
2022-10-31T06:18:18.687Z,98369.91
2022-10-31T06:23:23.888Z,98373.09
2022-10-31T06:28:34.513Z,98372.09
2022-10-31T06:33:48.725Z,98370.06
2022-10-31T06:38:51.399Z,98370.72
2022-10-31T06:43:57.763Z,98371.88
2022-10-31T06:49:26.727Z,98379.34
2022-10-31T06:54:30.850Z,98368.25
2022-10-31T06:59:33.532Z,98381.53
2022-10-31T07:04:44.763Z,98380.88
2022-10-31T07:09:50.184Z,98380.06
2022-10-31T07:14:57.116Z,98381.91
2022-10-31T07:19:59.861Z,98385.44
2022-10-31T07:25:02.591Z,98391.16
2022-10-31T07:30:23.520Z,98400.84
2022-10-31T07:35:30.977Z,98387.69
2022-10-31T07:40:34.719Z,98389.06
2022-10-31T07:45:38.817Z,98386.56
2022-10-31T07:50:59.552Z,98384.31
2022-10-31T07:56:28.360Z,98385.84
2022-10-31T08:01:30.937Z,98382.66
2022-10-31T08:07:02.179Z,98391.50
2022-10-31T08:12:10.331Z,98382.78
2022-10-31T08:17:13.671Z,98383.97
2022-10-31T08:22:33.497Z,98384.78
2022-10-31T08:27:37.491Z,98382.47
2022-10-31T08:32:40.066Z,98377.16
2022-10-31T08:38:01.613Z,98376.13
2022-10-31T08:43:07.937Z,98375.78
2022-10-31T08:48:16.243Z,98369.31
2022-10-31T08:53:20.392Z,98367.53
2022-10-31T08:58:32.620Z,98360.06
2022-10-31T09:03:38.527Z,98354.88
2022-10-31T09:08:41.629Z,98362.53
2022-10-31T09:13:44.265Z,98355.59
2022-10-31T09:18:52.239Z,98345.25
2022-10-31T09:23:55.122Z,98338.41
2022-10-31T09:28:59.565Z,98339.44
2022-10-31T09:34:02.160Z,98346.16
2022-10-31T09:39:13.143Z,98341.50
2022-10-31T09:44:24.861Z,98344.03
2022-10-31T09:50:03.543Z,98336.47
2022-10-31T09:55:20.168Z,98341.06
2022-10-31T10:00:23.526Z,98337.16
2022-10-31T10:05:31.914Z,98336.53
2022-10-31T10:10:46.098Z,98333.97
2022-10-31T10:16:19.295Z,98322.81
2022-10-31T10:21:38.961Z,98318.66
2022-10-31T10:27:12.586Z,98330.50
2022-10-31T10:32:28.622Z,98314.53
2022-10-31T10:37:42.244Z,98311.59
2022-10-31T10:43:27.006Z,98309.53
2022-10-31T10:48:45.867Z,98311.19
2022-10-31T10:54:10.439Z,98310.78
2022-10-31T10:59:22.808Z,98291.78
2022-10-31T11:04:34.267Z,98285.03
2022-10-31T11:09:38.278Z,98280.25
2022-10-31T11:14:54.470Z,98272.75
2022-10-31T11:20:22.831Z,98264.63
2022-10-31T11:25:26.804Z,98249.84
2022-10-31T11:30:30.946Z,98241.16
2022-10-31T11:35:33.451Z,98238.41
2022-10-31T11:40:35.913Z,98230.69
2022-10-31T11:45:38.361Z,98219.97
2022-10-31T11:50:43.010Z,98222.88
2022-10-31T11:55:47.027Z,98217.00
2022-10-31T12:00:57.322Z,98212.25
2022-10-31T12:06:22.874Z,98204.44
2022-10-31T12:11:31.062Z,98199.03
2022-10-31T12:16:59.151Z,98187.69
2022-10-31T12:22:07.619Z,98184.09
2022-10-31T12:27:22.226Z,98181.75
2022-10-31T12:33:02.278Z,98168.72
2022-10-31T12:38:32.165Z,98159.94
2022-10-31T12:43:58.640Z,98151.78
2022-10-31T12:49:33.649Z,98143.78
2022-10-31T12:54:53.691Z,98131.91
2022-10-31T13:00:11.611Z,98118.63
2022-10-31T13:05:18.052Z,98110.09
2022-10-31T13:10:44.369Z,98118.81
2022-10-31T13:15:57.836Z,98104.69
2022-10-31T13:21:04.882Z,98094.81
2022-10-31T13:26:22.076Z,98075.88
2022-10-31T13:31:24.666Z,98082.97
2022-10-31T13:36:30.274Z,98082.97
2022-10-31T13:41:48.289Z,98081.06
2022-10-31T13:46:51.428Z,98084.84
2022-10-31T13:51:54.191Z,98071.63
2022-10-31T13:56:56.996Z,98058.19
2022-10-31T14:02:02.356Z,98060.75
2022-10-31T14:07:18.844Z,98060.75
2022-10-31T14:12:42.140Z,98056.34
2022-10-31T14:17:58.888Z,98049.38
2022-10-31T14:23:30.850Z,98032.28
2022-10-31T14:28:36.250Z,98031.84
2022-10-31T14:33:43.214Z,98039.47
2022-10-31T14:38:57.585Z,98047.72
2022-10-31T14:44:29.298Z,98042.03
2022-10-31T14:49:40.455Z,98033.13
2022-10-31T14:54:53.398Z,98033.56
2022-10-31T15:00:05.293Z,98027.69
2022-10-31T15:05:12.382Z,98027.59
2022-10-31T15:10:22.413Z,98023.97
2022-10-31T15:15:27.829Z,98024.28
2022-10-31T15:20:34.802Z,98024.94
2022-10-31T15:25:37.246Z,98019.25
2022-10-31T15:30:39.624Z,98015.75
2022-10-31T15:35:42.060Z,98008.50
2022-10-31T15:41:02.604Z,98009.09
2022-10-31T15:46:08.872Z,98010.22
2022-10-31T15:51:11.279Z,98001.53
2022-10-31T15:56:24.015Z,97999.75
2022-10-31T16:01:28.323Z,97999.91
2022-10-31T16:06:32.410Z,97988.91
2022-10-31T16:11:40.045Z,98012.56
2022-10-31T16:16:50.383Z,97990.56
2022-10-31T16:22:04.605Z,97993.03
2022-10-31T16:27:18.362Z,97988.41
2022-10-31T16:32:35.554Z,97972.59
2022-10-31T16:37:41.674Z,97976.59
2022-10-31T16:42:45.536Z,97978.72
2022-10-31T16:47:49.344Z,97976.75
2022-10-31T16:58:35.231Z,97979.81
2022-10-31T17:03:37.614Z,97967.56
2022-10-31T17:08:40.334Z,97973.19
2022-10-31T17:13:42.739Z,97980.69
2022-10-31T17:18:46.881Z,97965.63
2022-10-31T17:23:50.652Z,97952.53
2022-10-31T17:28:53.065Z,97978.25
2022-10-31T17:34:02.265Z,97975.19
2022-10-31T17:39:07.630Z,97978.38
2022-10-31T17:44:11.793Z,97985.09
2022-10-31T17:49:14.536Z,97975.50
2022-10-31T17:54:18.859Z,97964.84
2022-10-31T17:59:21.292Z,97955.88
2022-10-31T18:04:23.921Z,97955.44
2022-10-31T18:09:26.670Z,97951.00
2022-10-31T18:14:29.683Z,97945.19
2022-10-31T18:19:32.127Z,97953.75
2022-10-31T18:24:34.556Z,97952.22
2022-10-31T18:29:36.943Z,97935.00
2022-10-31T18:34:39.337Z,97903.78
2022-10-31T18:39:41.791Z,97901.38
2022-10-31T18:44:44.190Z,97893.28
2022-10-31T18:49:46.591Z,97895.56
2022-10-31T18:54:48.970Z,97874.56
2022-10-31T18:59:51.375Z,97890.25
2022-10-31T19:04:53.733Z,97891.66
2022-10-31T19:09:56.374Z,97908.69
2022-10-31T19:14:59.225Z,97902.91
2022-10-31T19:20:01.891Z,97931.19
2022-10-31T19:25:07.687Z,97943.53
2022-10-31T19:30:13.274Z,97925.69
2022-10-31T19:35:16.107Z,97964.41
2022-10-31T19:40:18.930Z,97990.28
2022-10-31T19:45:21.360Z,97946.44
2022-10-31T19:50:23.825Z,97961.66
2022-10-31T19:55:26.479Z,97974.13
2022-10-31T20:00:29.184Z,97947.50
2022-10-31T20:05:32.264Z,97965.00
2022-10-31T20:10:34.826Z,97985.88
2022-10-31T20:15:37.420Z,97980.25
2022-10-31T20:20:39.809Z,97982.69
2022-10-31T20:25:49.142Z,97978.38
2022-10-31T20:30:51.741Z,97981.41
2022-10-31T20:35:54.145Z,97981.72
2022-10-31T20:41:03.890Z,97965.75
2022-10-31T20:46:07.562Z,97963.16
2022-10-31T20:56:38.912Z,97962.84
2022-10-31T21:01:41.396Z,97966.22
2022-10-31T21:06:49.098Z,97956.75
2022-10-31T21:11:52.064Z,97970.44
2022-10-31T21:16:54.882Z,97978.38
2022-10-31T21:21:57.889Z,97995.69
2022-10-31T21:27:02.613Z,97999.38
2022-10-31T21:32:05.313Z,98002.94
2022-10-31T21:37:07.691Z,98001.69
2022-10-31T21:42:10.094Z,98006.34
2022-10-31T21:47:12.537Z,97996.63
2022-10-31T21:52:14.899Z,97991.78
2022-10-31T21:57:17.337Z,98005.06
2022-10-31T22:02:19.834Z,98000.63
2022-10-31T22:07:22.251Z,97994.13
2022-10-31T22:12:24.666Z,97990.75
2022-10-31T22:17:28.068Z,97975.69
2022-10-31T22:22:30.612Z,97971.38
2022-10-31T22:27:33.043Z,97983.03
2022-10-31T22:32:35.635Z,97974.72
2022-10-31T22:37:38.012Z,97971.47
2022-10-31T22:42:40.403Z,97973.25
2022-10-31T22:47:42.854Z,97970.91
2022-10-31T22:52:45.490Z,97961.53
2022-10-31T22:57:47.880Z,97950.75
2022-10-31T23:02:50.271Z,97962.34
2022-10-31T23:07:52.671Z,97970.34
2022-10-31T23:13:13.946Z,97962.72
2022-10-31T23:18:36.598Z,97962.63
2022-10-31T23:23:38.746Z,97960.59
2022-10-31T23:28:41.109Z,97970.78
2022-10-31T23:33:43.481Z,97980.38
2022-10-31T23:38:45.838Z,97965.25
2022-10-31T23:43:48.867Z,97964.06
2022-10-31T23:48:53.553Z,97960.72
2022-10-31T23:53:57.689Z,97966.63
2022-10-31T23:59:00.255Z,97962.13
